Time;durP1;ratioP1;P1;durP2;ratioP2;P2;SDS_P1;SDS_P2;PMS_P1;PMS_P2;Temp;Humidity;BMP_temperature;BMP_pressure;BME280_temperature;BME280_humidity;BME280_pressure;Samples;Min_cycle;Max_cycle;Signal;HPM_P1;HPM_P2
2021/10/08 00:01:02;;;;;;;14.87;11.80;;;9.60;99.90;;;;;;5033316;28;20203;-77
2021/10/08 00:03:27;;;;;;;13.80;10.53;;;9.60;99.90;;;;;;5052071;28;20176;-77
2021/10/08 00:05:53;;;;;;;14.17;11.33;;;9.60;99.90;;;;;;5052823;28;20161;-77
2021/10/08 00:08:18;;;;;;;17.37;11.83;;;9.60;99.90;;;;;;5052742;28;20195;-77
2021/10/08 00:10:44;;;;;;;16.00;10.60;;;9.50;99.90;;;;;;5052386;28;20170;-76
2021/10/08 00:13:09;;;;;;;16.50;12.10;;;9.60;99.90;;;;;;5052961;28;20581;-77
2021/10/08 00:15:35;;;;;;;15.90;12.20;;;9.50;99.90;;;;;;5052946;28;20278;-77
2021/10/08 00:18:00;;;;;;;15.00;11.10;;;9.50;99.90;;;;;;5052747;28;20241;-77
2021/10/08 00:20:26;;;;;;;13.80;10.90;;;9.40;99.90;;;;;;5042801;28;20188;-77
2021/10/08 00:22:52;;;;;;;14.17;10.63;;;9.40;99.90;;;;;;5032943;28;20168;-77
2021/10/08 00:25:18;;;;;;;12.23;10.40;;;9.40;99.90;;;;;;5032719;28;20173;-77
2021/10/08 00:27:43;;;;;;;15.67;11.50;;;9.40;99.90;;;;;;5033127;28;20403;-77
2021/10/08 00:30:09;;;;;;;12.27;9.90;;;9.40;99.90;;;;;;5032890;28;20157;-77
2021/10/08 00:32:35;;;;;;;11.70;10.07;;;9.40;99.90;;;;;;5047838;28;20242;-78
2021/10/08 00:35:00;;;;;;;14.70;10.20;;;9.40;99.90;;;;;;5052376;28;20207;-77
2021/10/08 00:37:26;;;;;;;11.40;10.20;;;9.30;99.90;;;;;;5042608;28;20180;-77
2021/10/08 00:39:52;;;;;;;13.50;10.90;;;9.30;99.90;;;;;;5032364;28;20640;-77
2021/10/08 00:42:21;;;;;;;12.33;10.60;;;9.30;99.90;;;;;;5032751;28;20200;-77
2021/10/08 00:44:46;;;;;;;15.03;10.67;;;9.20;99.90;;;;;;5032631;28;20160;-77
2021/10/08 00:47:13;;;;;;;16.33;12.27;;;9.30;99.90;;;;;;5032989;28;20426;-77
2021/10/08 00:49:39;;;;;;;12.67;10.47;;;9.20;99.90;;;;;;5032421;28;20536;-77
2021/10/08 00:52:05;;;;;;;17.07;10.20;;;9.20;99.90;;;;;;5032577;28;20456;-77
2021/10/08 00:54:30;;;;;;;13.20;11.80;;;9.20;99.90;;;;;;5033302;28;20207;-76
2021/10/08 00:56:58;;;;;;;15.70;11.70;;;9.20;99.90;;;;;;5032325;28;20248;-77
2021/10/08 00:59:27;;;;;;;15.40;11.70;;;9.20;99.90;;;;;;5037219;28;20565;-77
2021/10/08 01:01:52;;;;;;;13.57;11.43;;;9.20;99.90;;;;;;5042026;28;20458;-77
2021/10/08 01:04:18;;;;;;;14.23;10.93;;;9.10;99.90;;;;;;5032194;28;20392;-77
2021/10/08 01:06:44;;;;;;;13.50;10.53;;;9.10;99.90;;;;;;5032546;28;20518;-77
2021/10/08 01:09:09;;;;;;;15.60;10.60;;;9.10;99.90;;;;;;5032450;28;20878;-77
2021/10/08 01:11:36;;;;;;;11.60;10.40;;;9.10;99.90;;;;;;5043674;28;20611;-77
2021/10/08 01:14:03;;;;;;;15.00;11.50;;;9.10;99.90;;;;;;5052133;28;20211;-77
2021/10/08 01:16:28;;;;;;;19.00;10.00;;;9.10;99.90;;;;;;5052087;28;20461;-77
2021/10/08 01:18:54;;;;;;;13.70;10.30;;;9.10;99.90;;;;;;5052056;28;20442;-77
2021/10/08 01:21:20;;;;;;;10.93;9.57;;;9.00;99.90;;;;;;5052897;28;20243;-77
2021/10/08 01:23:46;;;;;;;13.20;11.23;;;9.00;99.90;;;;;;5056395;28;20247;-77
2021/10/08 01:26:12;;;;;;;13.30;10.10;;;9.00;99.90;;;;;;5055814;28;20165;-77
2021/10/08 01:28:38;;;;;;;10.87;9.67;;;9.00;99.90;;;;;;5054770;28;20422;-77
2021/10/08 01:31:04;;;;;;;14.40;10.27;;;9.00;99.90;;;;;;5050262;28;20447;-77
2021/10/08 01:33:29;;;;;;;13.07;10.03;;;9.00;99.90;;;;;;5035799;28;20240;-77
2021/10/08 01:35:55;;;;;;;11.43;9.90;;;9.00;99.90;;;;;;5035497;28;20549;-77
2021/10/08 01:38:20;;;;;;;14.17;10.57;;;9.00;99.90;;;;;;5035595;28;20199;-77
2021/10/08 01:40:46;;;;;;;14.40;10.77;;;9.00;99.90;;;;;;5035306;28;20260;-77
2021/10/08 01:43:12;;;;;;;13.83;9.83;;;8.90;99.90;;;;;;5035765;28;20625;-77
2021/10/08 01:45:37;;;;;;;10.90;9.50;;;8.90;99.90;;;;;;5036399;28;20645;-77
2021/10/08 01:48:03;;;;;;;12.13;10.83;;;8.90;99.90;;;;;;5035606;28;20179;-77
2021/10/08 01:50:30;;;;;;;10.37;9.30;;;8.90;99.90;;;;;;5035765;28;20161;-77
2021/10/08 01:52:58;;;;;;;11.00;9.00;;;8.90;99.90;;;;;;5035597;28;20165;-77
2021/10/08 01:55:23;;;;;;;11.40;10.20;;;8.80;99.90;;;;;;5035511;28;20559;-77
2021/10/08 01:57:49;;;;;;;11.17;8.17;;;8.80;99.90;;;;;;5035261;28;20939;-77
2021/10/08 02:00:15;;;;;;;11.10;9.00;;;8.80;99.90;;;;;;5035691;28;20165;-77
2021/10/08 02:02:41;;;;;;;11.43;9.20;;;8.80;99.90;;;;;;5041205;28;20212;-77
2021/10/08 02:05:07;;;;;;;11.70;9.50;;;8.80;99.90;;;;;;5035424;28;20418;-77
2021/10/08 02:07:32;;;;;;;11.17;9.47;;;8.80;99.90;;;;;;5035207;28;20700;-77
2021/10/08 02:09:58;;;;;;;12.30;9.10;;;8.70;99.90;;;;;;5053298;28;20422;-77
2021/10/08 02:12:24;;;;;;;10.40;8.90;;;8.80;99.90;;;;;;5055235;28;20164;-76
2021/10/08 02:14:49;;;;;;;14.63;10.20;;;8.80;99.90;;;;;;5055174;28;20550;-77
2021/10/08 02:17:15;;;;;;;11.13;9.30;;;8.70;99.90;;;;;;5054857;28;20163;-77
2021/10/08 02:19:40;;;;;;;10.60;7.90;;;8.70;99.90;;;;;;5054208;28;20195;-77
2021/10/08 02:22:06;;;;;;;11.73;9.33;;;8.70;99.90;;;;;;5055114;28;20643;-77
2021/10/08 02:24:32;;;;;;;10.37;8.80;;;8.70;99.90;;;;;;5054734;28;20160;-77
2021/10/08 02:26:57;;;;;;;12.63;10.13;;;8.60;99.90;;;;;;5054832;28;20182;-77
2021/10/08 02:29:24;;;;;;;12.33;9.70;;;8.60;99.90;;;;;;5054581;28;20376;-77
2021/10/08 02:31:50;;;;;;;13.10;11.03;;;8.60;99.90;;;;;;5040455;28;20691;-77
2021/10/08 02:34:16;;;;;;;12.57;9.67;;;8.60;99.90;;;;;;5034337;28;20423;-77
2021/10/08 02:36:41;;;;;;;11.83;10.20;;;8.60;99.90;;;;;;5046740;28;20196;-77
2021/10/08 02:39:07;;;;;;;11.00;9.43;;;8.60;99.90;;;;;;5054755;28;20168;-77
2021/10/08 02:41:32;;;;;;;9.60;8.30;;;8.50;99.90;;;;;;5054769;28;20168;-77
2021/10/08 02:43:58;;;;;;;9.60;8.13;;;8.50;99.90;;;;;;5054515;28;20193;-77
2021/10/08 02:46:24;;;;;;;10.37;9.27;;;8.50;99.90;;;;;;5054446;28;20476;-77
2021/10/08 02:48:49;;;;;;;11.57;9.40;;;8.50;99.90;;;;;;5054070;28;20172;-77
2021/10/08 02:51:15;;;;;;;12.07;8.87;;;8.50;99.90;;;;;;5054152;28;20505;-77
2021/10/08 02:53:40;;;;;;;12.77;7.60;;;8.50;99.90;;;;;;5053375;28;20180;-77
2021/10/08 02:56:06;;;;;;;9.20;8.30;;;8.50;99.90;;;;;;5054540;28;20192;-77
2021/10/08 02:58:32;;;;;;;9.17;7.97;;;8.50;99.90;;;;;;5055217;28;20153;-77
2021/10/08 03:00:57;;;;;;;9.60;7.53;;;8.50;99.90;;;;;;5047213;28;20173;-78
2021/10/08 03:03:23;;;;;;;8.60;7.40;;;8.40;99.90;;;;;;5034023;28;20200;-78
2021/10/08 03:05:48;;;;;;;9.50;8.50;;;8.40;99.90;;;;;;5034111;28;20187;-77
2021/10/08 03:08:14;;;;;;;10.47;8.30;;;8.40;99.90;;;;;;5033923;28;20161;-78
2021/10/08 03:10:40;;;;;;;10.40;8.80;;;8.40;99.90;;;;;;5034760;28;20714;-77
2021/10/08 03:13:05;;;;;;;10.00;8.47;;;8.40;99.90;;;;;;5033835;28;20165;-77
2021/10/08 03:15:31;;;;;;;10.07;8.77;;;8.40;99.90;;;;;;5033887;28;20610;-77
2021/10/08 03:17:56;;;;;;;13.20;10.00;;;8.40;99.90;;;;;;5033428;28;20187;-77
2021/10/08 03:20:22;;;;;;;12.07;9.07;;;8.40;99.90;;;;;;5033879;28;20192;-77
2021/10/08 03:22:48;;;;;;;10.60;9.03;;;8.40;99.90;;;;;;5035957;28;20184;-77
2021/10/08 03:25:13;;;;;;;10.90;9.53;;;8.30;99.90;;;;;;5053619;28;20209;-77
2021/10/08 03:27:40;;;;;;;10.20;8.57;;;8.40;99.90;;;;;;5041336;28;20207;-78
2021/10/08 03:30:09;;;;;;;11.53;8.80;;;8.30;99.90;;;;;;5035045;28;20574;-77
2021/10/08 03:32:35;;;;;;;14.73;8.33;;;8.30;99.90;;;;;;5042673;28;20450;-77
2021/10/08 03:35:00;;;;;;;13.87;9.03;;;8.30;99.90;;;;;;5038882;28;20977;-77
2021/10/08 03:37:35;;;;;;;15.13;9.90;;;8.30;99.90;;;;;;5041619;28;20503;-77
2021/10/08 03:40:00;;;;;;;9.03;8.10;;;8.30;99.90;;;;;;5043171;28;20246;-77
2021/10/08 03:42:26;;;;;;;15.03;10.60;;;8.30;99.90;;;;;;5034591;28;20415;-77
2021/10/08 03:44:57;;;;;;;11.53;9.90;;;8.30;99.90;;;;;;5033706;28;20627;-78
2021/10/08 03:47:29;;;;;;;10.60;8.00;;;8.30;99.90;;;;;;5035404;28;20188;-77
2021/10/08 03:49:56;;;;;;;8.63;7.30;;;8.30;99.90;;;;;;5033052;28;20423;-78
2021/10/08 03:52:21;;;;;;;9.67;8.00;;;8.20;99.90;;;;;;5033067;28;20388;-78
2021/10/08 03:54:47;;;;;;;10.30;7.63;;;8.20;99.90;;;;;;5051943;28;20539;-78
2021/10/08 03:57:13;;;;;;;9.00;8.03;;;8.20;99.90;;;;;;5052836;28;20633;-77
2021/10/08 03:59:38;;;;;;;13.03;9.53;;;8.20;99.90;;;;;;5052825;28;20161;-78
2021/10/08 04:02:04;;;;;;;8.10;7.00;;;8.20;99.90;;;;;;5037481;28;20184;-77
2021/10/08 04:04:29;;;;;;;9.07;7.47;;;8.20;99.90;;;;;;5032892;28;20180;-78
2021/10/08 04:06:55;;;;;;;8.70;7.63;;;8.20;99.90;;;;;;5032873;28;20235;-78
2021/10/08 04:09:20;;;;;;;8.60;7.63;;;8.10;99.90;;;;;;5032783;28;20157;-77
2021/10/08 04:11:46;;;;;;;9.77;8.17;;;8.10;99.90;;;;;;5032909;28;20162;-77
2021/10/08 04:14:11;;;;;;;8.67;7.80;;;8.10;99.90;;;;;;5032633;28;20156;-77
2021/10/08 04:16:37;;;;;;;9.90;7.50;;;8.10;99.90;;;;;;5032699;28;20593;-77
2021/10/08 04:19:04;;;;;;;10.80;7.70;;;8.10;99.90;;;;;;5033429;28;20189;-77
2021/10/08 04:21:29;;;;;;;11.80;8.03;;;8.10;99.90;;;;;;5048181;28;20207;-78
2021/10/08 04:23:55;;;;;;;8.30;7.50;;;8.10;99.90;;;;;;5050905;28;20430;-78
2021/10/08 04:26:20;;;;;;;8.20;7.20;;;8.10;99.90;;;;;;5050897;28;20199;-77
2021/10/08 04:28:46;;;;;;;10.47;7.90;;;8.10;99.90;;;;;;5052158;28;20164;-77
2021/10/08 04:31:12;;;;;;;11.10;8.07;;;8.10;99.90;;;;;;5052609;28;20196;-77
2021/10/08 04:33:38;;;;;;;10.87;7.87;;;8.10;99.90;;;;;;5052550;28;20629;-76
2021/10/08 04:36:04;;;;;;;10.80;7.80;;;8.00;99.90;;;;;;5036826;28;20501;-77
2021/10/08 04:38:30;;;;;;;8.80;7.40;;;8.00;99.90;;;;;;5035694;28;20173;-78
2021/10/08 04:40:57;;;;;;;13.60;7.87;;;8.00;99.90;;;;;;5053204;28;20171;-78
2021/10/08 04:43:22;;;;;;;7.50;6.70;;;8.00;99.90;;;;;;5050820;28;20919;-78
2021/10/08 04:45:48;;;;;;;8.00;7.07;;;8.00;99.90;;;;;;5050858;28;20449;-78
2021/10/08 04:48:14;;;;;;;9.20;7.53;;;8.00;99.90;;;;;;5050975;28;20159;-78
2021/10/08 04:50:40;;;;;;;11.13;6.93;;;8.00;99.90;;;;;;5050524;28;20263;-77
2021/10/08 04:53:15;;;;;;;8.80;7.20;;;8.00;99.90;;;;;;5042446;28;20185;-78
2021/10/08 04:55:40;;;;;;;8.30;7.20;;;8.00;99.90;;;;;;5030940;28;20453;-78
2021/10/08 04:58:06;;;;;;;9.03;7.27;;;7.90;99.90;;;;;;5034491;28;20399;-78
2021/10/08 05:00:31;;;;;;;9.23;6.93;;;7.90;99.90;;;;;;5035118;28;20278;-78
2021/10/08 05:02:57;;;;;;;9.80;6.43;;;7.90;99.90;;;;;;5035235;28;20172;-78
2021/10/08 05:05:22;;;;;;;8.83;7.33;;;7.90;99.90;;;;;;5034668;28;20180;-77
2021/10/08 05:07:48;;;;;;;7.37;6.67;;;7.90;99.90;;;;;;5035179;28;20523;-78
2021/10/08 05:10:13;;;;;;;9.40;7.90;;;7.90;99.90;;;;;;5050936;28;20219;-78
2021/10/08 05:12:39;;;;;;;8.57;7.17;;;7.90;99.90;;;;;;5054382;28;20161;-78
2021/10/08 05:15:05;;;;;;;8.20;7.30;;;7.90;99.90;;;;;;5055006;28;20188;-77
2021/10/08 05:17:30;;;;;;;9.43;7.37;;;7.80;99.90;;;;;;5056087;28;20570;-78
2021/10/08 05:19:56;;;;;;;10.40;7.50;;;7.80;99.90;;;;;;5055657;28;20160;-77
2021/10/08 05:22:21;;;;;;;9.00;6.67;;;7.80;99.90;;;;;;5052746;28;20184;-77
2021/10/08 05:24:47;;;;;;;8.40;7.60;;;7.80;99.90;;;;;;5036247;28;20225;-78
2021/10/08 05:27:12;;;;;;;9.73;7.07;;;7.80;99.90;;;;;;5052556;28;20210;-77
2021/10/08 05:29:38;;;;;;;11.43;7.60;;;7.80;99.90;;;;;;5050445;28;20227;-78
2021/10/08 05:32:04;;;;;;;7.07;5.87;;;7.80;99.90;;;;;;5044982;28;20200;-77
2021/10/08 05:34:29;;;;;;;8.53;6.87;;;7.80;99.90;;;;;;5053821;28;20272;-77
2021/10/08 05:36:55;;;;;;;8.93;6.90;;;7.80;99.90;;;;;;5051491;28;20187;-76
2021/10/08 05:39:20;;;;;;;8.53;7.10;;;7.80;99.90;;;;;;5036008;28;20185;-76
2021/10/08 05:41:46;;;;;;;7.93;6.50;;;7.80;99.90;;;;;;5044849;28;20195;-76
2021/10/08 05:44:11;;;;;;;8.10;6.97;;;7.80;99.90;;;;;;5055144;28;20184;-76
2021/10/08 05:46:38;;;;;;;8.47;7.00;;;7.80;99.90;;;;;;5042832;28;20188;-76
2021/10/08 05:49:04;;;;;;;10.73;7.23;;;7.80;99.90;;;;;;5040182;28;20250;-76
2021/10/08 05:51:30;;;;;;;8.67;7.37;;;7.70;99.90;;;;;;5054595;28;20422;-76
2021/10/08 05:53:55;;;;;;;8.00;7.20;;;7.70;99.90;;;;;;5038381;28;20442;-78
2021/10/08 05:56:21;;;;;;;11.70;8.10;;;7.80;99.90;;;;;;5034275;28;20466;-76
2021/10/08 05:58:46;;;;;;;9.10;7.20;;;7.80;99.90;;;;;;5034573;28;20227;-75
2021/10/08 06:01:12;;;;;;;8.80;6.63;;;7.80;99.90;;;;;;5049050;28;20226;-76
2021/10/08 06:03:38;;;;;;;9.50;6.50;;;7.80;99.90;;;;;;5054079;28;20157;-76
2021/10/08 06:06:04;;;;;;;12.67;7.43;;;7.80;99.90;;;;;;5053634;28;20214;-77
2021/10/08 06:08:30;;;;;;;11.47;7.93;;;7.80;99.90;;;;;;5046485;28;20173;-78
2021/10/08 06:10:56;;;;;;;10.10;7.67;;;7.80;99.90;;;;;;5044609;28;20422;-78
2021/10/08 06:13:22;;;;;;;8.43;7.30;;;7.80;99.90;;;;;;5049481;28;20425;-77
2021/10/08 06:15:48;;;;;;;10.50;8.63;;;7.80;99.90;;;;;;5039033;28;20279;-76
2021/10/08 06:18:13;;;;;;;9.67;7.53;;;7.80;99.90;;;;;;5039731;28;20517;-77
2021/10/08 06:20:39;;;;;;;16.63;8.90;;;7.90;99.90;;;;;;5053472;28;20598;-78
2021/10/08 06:23:05;;;;;;;8.93;7.77;;;7.90;99.90;;;;;;5042712;28;20181;-78
2021/10/08 06:25:31;;;;;;;9.47;8.17;;;7.90;99.90;;;;;;5034694;28;20184;-78
2021/10/08 06:27:56;;;;;;;9.57;8.57;;;7.90;99.90;;;;;;5034655;28;20161;-78
2021/10/08 06:30:22;;;;;;;9.07;7.53;;;7.90;99.90;;;;;;5041899;28;20681;-79
2021/10/08 06:32:48;;;;;;;10.00;8.20;;;8.00;99.90;;;;;;5042874;28;20180;-78
2021/10/08 06:35:15;;;;;;;9.13;7.57;;;8.00;99.90;;;;;;5047205;28;20204;-77
2021/10/08 06:37:41;;;;;;;9.17;7.73;;;8.00;99.90;;;;;;5036719;28;20411;-80
2021/10/08 06:40:07;;;;;;;9.20;8.17;;;8.00;99.90;;;;;;5033812;28;20419;-77
2021/10/08 06:42:33;;;;;;;10.33;8.70;;;8.00;99.90;;;;;;5033036;28;20238;-78
2021/10/08 06:44:58;;;;;;;13.10;9.30;;;8.00;99.90;;;;;;5046002;28;20427;-80
2021/10/08 06:47:24;;;;;;;8.40;6.97;;;8.00;99.90;;;;;;5029177;28;20174;-76
2021/10/08 06:49:51;;;;;;;10.40;7.33;;;8.10;99.90;;;;;;5040962;28;20180;-76
2021/10/08 06:52:16;;;;;;;9.80;7.83;;;8.10;99.90;;;;;;5043059;28;20427;-78
2021/10/08 06:54:42;;;;;;;9.23;7.93;;;8.20;99.90;;;;;;5034694;28;20532;-78
2021/10/08 06:57:08;;;;;;;10.30;8.30;;;8.20;99.90;;;;;;5036561;28;20195;-80
2021/10/08 06:59:34;;;;;;;8.40;7.60;;;8.30;99.90;;;;;;5036478;28;20437;-77
2021/10/08 07:02:00;;;;;;;9.33;7.53;;;8.30;99.90;;;;;;5031851;28;20184;-78
2021/10/08 07:04:26;;;;;;;10.10;8.10;;;8.30;99.90;;;;;;5032862;28;20469;-77
2021/10/08 07:06:51;;;;;;;12.17;7.67;;;8.30;99.90;;;;;;5035026;28;20165;-79
2021/10/08 07:09:17;;;;;;;9.20;8.13;;;8.40;99.90;;;;;;5050044;28;20254;-78
2021/10/08 07:11:42;;;;;;;11.40;8.70;;;8.50;99.90;;;;;;5053360;28;20617;-78
2021/10/08 07:14:08;;;;;;;9.70;7.50;;;8.50;99.90;;;;;;5044822;28;20200;-78
2021/10/08 07:16:34;;;;;;;9.87;8.57;;;8.50;99.90;;;;;;5050563;28;20199;-78
2021/10/08 07:19:07;;;;;;;9.20;7.80;;;8.60;99.90;;;;;;5050836;28;20243;-80
2021/10/08 07:21:34;;;;;;;10.30;8.40;;;8.70;99.90;;;;;;5051640;28;20279;-80
2021/10/08 07:24:00;;;;;;;11.10;8.40;;;8.70;99.90;;;;;;5048209;28;20414;-79
2021/10/08 07:26:30;;;;;;;10.53;7.60;;;8.70;99.90;;;;;;5034564;28;20510;-78
2021/10/08 07:28:55;;;;;;;10.80;8.80;;;8.80;99.90;;;;;;5031594;28;20546;-79
2021/10/08 07:31:21;;;;;;;8.60;7.17;;;8.80;99.90;;;;;;5033440;28;20530;-77
2021/10/08 07:33:47;;;;;;;9.93;8.30;;;8.90;99.90;;;;;;5033024;28;20188;-78
2021/10/08 07:36:12;;;;;;;9.10;7.23;;;8.90;99.90;;;;;;5041304;28;20461;-78
2021/10/08 07:38:38;;;;;;;9.13;7.80;;;9.00;99.90;;;;;;5034877;28;20633;-77
2021/10/08 07:41:04;;;;;;;8.30;7.50;;;9.00;99.90;;;;;;5035034;28;20168;-78
2021/10/08 07:43:30;;;;;;;9.10;7.50;;;9.10;99.90;;;;;;5036524;28;20796;-77
2021/10/08 07:45:55;;;;;;;14.20;8.50;;;9.20;99.90;;;;;;5037778;28;20183;-76
2021/10/08 07:48:21;;;;;;;8.67;7.77;;;9.20;99.90;;;;;;5035348;28;20235;-78
2021/10/08 07:50:47;;;;;;;8.80;7.90;;;9.30;99.90;;;;;;5038130;28;20176;-78
2021/10/08 07:53:13;;;;;;;12.00;8.00;;;9.30;99.90;;;;;;5042721;28;20183;-78
2021/10/08 07:55:38;;;;;;;9.47;8.33;;;9.40;99.90;;;;;;5042519;28;20958;-78
2021/10/08 07:58:04;;;;;;;8.57;7.67;;;9.50;99.90;;;;;;5045426;28;20219;-78
2021/10/08 08:00:29;;;;;;;13.07;8.53;;;9.60;99.90;;;;;;5044189;28;20592;-77
2021/10/08 08:02:55;;;;;;;10.73;9.10;;;9.60;99.90;;;;;;5032522;28;20164;-78
2021/10/08 08:05:21;;;;;;;10.07;8.03;;;9.70;99.90;;;;;;5035156;28;20191;-78
2021/10/08 08:07:48;;;;;;;15.30;9.30;;;9.80;99.90;;;;;;5035394;28;20657;-77
2021/10/08 08:10:14;;;;;;;10.27;8.57;;;9.80;99.90;;;;;;5037867;28;20199;-77
2021/10/08 08:12:40;;;;;;;10.63;9.40;;;9.90;99.90;;;;;;5041426;28;20474;-78
2021/10/08 08:15:06;;;;;;;11.67;8.03;;;10.00;99.90;;;;;;5032773;28;20439;-78
2021/10/08 08:17:32;;;;;;;14.97;9.50;;;10.10;99.90;;;;;;5032980;28;20527;-78
2021/10/08 08:19:58;;;;;;;11.37;9.07;;;10.10;99.90;;;;;;5042453;28;20423;-78
2021/10/08 08:22:24;;;;;;;12.43;8.30;;;10.20;99.90;;;;;;5035791;28;20181;-78
2021/10/08 08:24:49;;;;;;;10.20;8.47;;;10.30;99.90;;;;;;5044734;28;20177;-78
2021/10/08 08:27:15;;;;;;;13.17;9.57;;;10.40;99.90;;;;;;5046099;28;20495;-78
2021/10/08 08:29:41;;;;;;;9.90;8.50;;;10.50;99.90;;;;;;5034558;28;20181;-78
2021/10/08 08:32:06;;;;;;;13.00;10.80;;;10.50;99.90;;;;;;5035611;28;20343;-78
2021/10/08 08:34:32;;;;;;;11.10;10.10;;;10.60;99.90;;;;;;5030635;28;20199;-78
2021/10/08 08:36:58;;;;;;;14.63;10.17;;;10.70;99.90;;;;;;5029865;28;20164;-77
2021/10/08 08:39:24;;;;;;;11.97;9.57;;;10.80;99.90;;;;;;5030181;28;20161;-78
2021/10/08 08:41:50;;;;;;;12.97;10.00;;;10.90;99.90;;;;;;5045141;28;20183;-79
2021/10/08 08:44:16;;;;;;;12.07;10.33;;;11.00;99.90;;;;;;5051306;28;20164;-78
2021/10/08 08:46:42;;;;;;;13.77;10.30;;;11.00;99.90;;;;;;5043122;28;20429;-78
2021/10/08 08:49:08;;;;;;;12.60;10.53;;;11.10;99.90;;;;;;5034271;28;20475;-77
2021/10/08 08:51:34;;;;;;;11.53;9.37;;;11.20;99.90;;;;;;5048226;28;20899;-78
2021/10/08 08:54:03;;;;;;;10.33;9.27;;;11.30;99.90;;;;;;5038473;28;20172;-78
2021/10/08 08:56:29;;;;;;;11.80;9.80;;;11.40;99.90;;;;;;5058739;28;20195;-77
2021/10/08 08:59:00;;;;;;;9.53;8.63;;;11.40;99.90;;;;;;5048821;28;20887;-78
2021/10/08 09:01:25;;;;;;;14.00;9.40;;;11.50;99.90;;;;;;5050570;28;20421;-77
2021/10/08 09:04:00;;;;;;;11.13;8.17;;;11.50;99.90;;;;;;5051287;28;20415;-78
2021/10/08 09:06:31;;;;;;;9.73;8.30;;;11.60;99.90;;;;;;5047051;28;20191;-78
2021/10/08 09:08:57;;;;;;;11.70;9.10;;;11.60;99.90;;;;;;5045936;28;20429;-79
2021/10/08 09:11:35;;;;;;;10.47;8.43;;;11.70;99.90;;;;;;5034249;28;20415;-78
2021/10/08 09:14:26;;;;;;;8.43;7.47;;;11.80;99.90;;;;;;5030908;28;20173;-79
2021/10/08 09:17:11;;;;;;;7.13;6.43;;;11.80;99.90;;;;;;5035603;28;20511;-78
2021/10/08 09:20:00;;;;;;;5.90;5.40;;;11.90;99.90;;;;;;5038246;28;20898;-76
2021/10/08 09:27:55;;;;;;;5.13;4.63;;;12.30;99.90;;;;;;5098062;27;20536;-76
2021/10/08 09:30:26;;;;;;;5.67;5.10;;;12.40;99.90;;;;;;5099147;28;20722;-78
2021/10/08 09:32:55;;;;;;;6.03;4.93;;;12.50;99.90;;;;;;5101196;28;20844;-78
2021/10/08 09:35:23;;;;;;;5.60;5.03;;;12.60;99.90;;;;;;5105431;28;20404;-79
2021/10/08 09:38:10;;;;;;;5.20;4.77;;;12.70;99.90;;;;;;5109087;28;20805;-78
2021/10/08 09:43:23;;;;;;;6.07;5.33;;;12.90;99.90;;;;;;5060068;28;21203;-77
2021/10/08 09:45:51;;;;;;;7.53;5.20;;;13.10;99.90;;;;;;5065658;28;20786;-77
2021/10/08 09:48:20;;;;;;;5.73;4.90;;;13.10;99.90;;;;;;5060067;28;20522;-77
2021/10/08 09:51:15;;;;;;;6.00;5.40;;;13.20;99.90;;;;;;5068928;28;20477;-78
2021/10/08 09:59:11;;;;;;;5.20;4.80;;;13.40;99.90;;;;;;5053479;28;20523;-79
2021/10/08 10:01:38;;;;;;;5.37;4.90;;;13.50;99.90;;;;;;5049531;28;20410;-79
2021/10/08 10:04:05;;;;;;;5.70;5.27;;;13.50;99.90;;;;;;5048361;28;20926;-78
2021/10/08 10:06:31;;;;;;;6.00;5.17;;;13.60;99.90;;;;;;5049053;28;20413;-80
2021/10/08 10:08:57;;;;;;;5.23;4.80;;;13.70;99.90;;;;;;5049611;28;20420;-79
2021/10/08 10:11:26;;;;;;;4.97;4.47;;;13.70;99.90;;;;;;5049320;28;20390;-81
2021/10/08 10:13:57;;;;;;;4.90;4.50;;;13.70;99.90;;;;;;5049371;28;20411;-79
2021/10/08 10:16:24;;;;;;;4.40;4.00;;;13.80;99.90;;;;;;5048913;28;20489;-79
2021/10/08 10:18:54;;;;;;;12.23;4.60;;;13.80;99.90;;;;;;5049480;28;21000;-79
2021/10/08 10:21:23;;;;;;;6.80;5.60;;;13.90;99.90;;;;;;5045474;28;20495;-78
2021/10/08 10:23:55;;;;;;;6.27;5.00;;;14.00;99.90;;;;;;5046745;28;20453;-80
2021/10/08 10:26:22;;;;;;;6.60;5.20;;;14.10;99.90;;;;;;5049170;28;20406;-79
2021/10/08 10:28:48;;;;;;;5.63;4.50;;;14.20;99.90;;;;;;5048776;28;20406;-79
2021/10/08 10:31:18;;;;;;;4.40;4.00;;;14.20;99.90;;;;;;5040772;28;20438;-77
2021/10/08 10:33:44;;;;;;;4.97;4.23;;;14.30;99.90;;;;;;5007567;28;20405;-78
2021/10/08 10:36:29;;;;;;;4.50;4.10;;;14.30;99.90;;;;;;5007904;28;20466;-78
2021/10/08 10:39:16;;;;;;;4.23;3.33;;;14.40;99.90;;;;;;5013209;28;20463;-78
2021/10/08 10:41:45;;;;;;;4.33;3.93;;;14.50;99.90;;;;;;5025842;28;20955;-79
2021/10/08 10:44:19;;;;;;;3.73;3.43;;;14.60;99.90;;;;;;5027695;28;20395;-78
2021/10/08 10:46:49;;;;;;;5.30;3.57;;;14.60;99.90;;;;;;5028301;28;20399;-78
2021/10/08 10:52:13;;;;;;;3.03;2.77;;;14.60;99.90;;;;;;5068623;28;21044;-77
2021/10/08 11:00:36;;;;;;;4.00;3.67;;;14.70;99.90;;;;;;5067959;28;20778;-77
2021/10/08 11:03:07;;;;;;;4.30;3.73;;;14.90;99.90;;;;;;5066412;28;20402;-78
2021/10/08 11:05:37;;;;;;;4.40;4.10;;;14.80;99.90;;;;;;5066519;28;20417;-77
2021/10/08 11:13:45;;;;;;;4.60;4.20;;;14.90;99.90;;;;;;5025314;27;21060;-78
2021/10/08 11:16:12;;;;;;;5.37;4.77;;;14.90;99.90;;;;;;5006476;28;20413;-77
2021/10/08 11:26:57;;;;;;;5.23;4.10;;;15.00;99.90;;;;;;5070017;28;20521;-78
2021/10/08 11:29:25;;;;;;;5.57;4.83;;;15.00;99.90;;;;;;5069930;28;20410;-78
2021/10/08 11:31:59;;;;;;;4.90;4.40;;;15.00;99.90;;;;;;5057947;28;20420;-78
2021/10/08 11:34:24;;;;;;;6.10;4.63;;;15.00;99.90;;;;;;5050045;28;20438;-78
2021/10/08 11:36:59;;;;;;;4.77;4.37;;;15.10;99.90;;;;;;5050169;28;20455;-78
2021/10/08 11:39:25;;;;;;;6.10;5.10;;;15.10;99.90;;;;;;5050016;28;20721;-77
2021/10/08 11:44:53;;;;;;;4.50;4.10;;;15.10;99.90;;;;;;5069532;28;20519;-79
2021/10/08 11:47:31;;;;;;;5.20;4.80;;;15.10;99.90;;;;;;5069860;28;20430;-79
2021/10/08 11:52:40;;;;;;;5.80;3.70;;;15.10;99.90;;;;;;5070555;28;20562;-78
2021/10/08 12:03:14;;;;;;;5.93;4.23;;;15.10;99.90;;;;;;5058354;28;20558;-76
2021/10/08 12:08:22;;;;;;;5.73;4.07;;;15.20;99.90;;;;;;5070090;28;20520;-77
2021/10/08 12:16:46;;;;;;;7.17;5.20;;;15.40;99.90;;;;;;5070008;28;21035;-77
2021/10/08 12:19:13;;;;;;;3.20;3.00;;;15.40;99.90;;;;;;5070033;28;20888;-77
2021/10/08 12:21:47;;;;;;;4.80;4.30;;;15.40;99.90;;;;;;5068420;28;20383;-77
2021/10/08 12:24:17;;;;;;;4.13;3.67;;;15.40;99.90;;;;;;5068059;28;20432;-77
2021/10/08 12:26:51;;;;;;;6.03;4.00;;;15.50;99.90;;;;;;5068236;28;20401;-77
2021/10/08 12:29:16;;;;;;;7.63;4.80;;;15.50;99.90;;;;;;5068355;28;20428;-77
2021/10/08 12:31:59;;;;;;;5.93;4.67;;;15.60;99.90;;;;;;5055645;28;20419;-77
2021/10/08 12:34:41;;;;;;;4.03;3.63;;;15.60;99.90;;;;;;5048220;28;20636;-77
2021/10/08 12:37:09;;;;;;;5.63;3.93;;;15.70;99.90;;;;;;5061889;28;20409;-77
2021/10/08 12:39:38;;;;;;;5.00;3.60;;;15.70;99.90;;;;;;5069103;28;20437;-77
2021/10/08 12:42:23;;;;;;;6.43;4.50;;;15.70;99.90;;;;;;5069004;28;20394;-77
2021/10/08 12:44:51;;;;;;;4.10;3.70;;;15.70;99.90;;;;;;5069627;28;20406;-77
2021/10/08 12:47:24;;;;;;;3.90;2.70;;;15.70;99.90;;;;;;5068703;28;20390;-77
2021/10/08 12:52:49;;;;;;;4.30;4.00;;;15.70;99.90;;;;;;5105937;27;20549;-77
2021/10/08 12:55:32;;;;;;;4.50;4.10;;;15.90;99.90;;;;;;5090286;28;20468;-77
2021/10/08 12:58:17;;;;;;;4.00;3.43;;;15.90;99.90;;;;;;5090121;28;20388;-77
2021/10/08 13:00:52;;;;;;;4.97;3.93;;;15.90;99.90;;;;;;5090549;28;20393;-77
2021/10/08 13:03:36;;;;;;;4.97;3.40;;;15.90;99.90;;;;;;5090451;28;20381;-77
2021/10/08 13:06:03;;;;;;;4.67;3.60;;;15.90;99.90;;;;;;5081210;28;20434;-77
2021/10/08 13:08:33;;;;;;;3.67;3.20;;;15.80;99.90;;;;;;5089682;28;20749;-76
2021/10/08 13:13:38;;;;;;;3.23;2.90;;;15.80;99.90;;;;;;5064206;28;20559;-75
2021/10/08 13:16:08;;;;;;;4.60;3.30;;;15.80;99.90;;;;;;5063083;28;20861;-78
2021/10/08 13:18:43;;;;;;;3.70;3.33;;;15.80;99.90;;;;;;5055502;28;20459;-77
2021/10/08 13:21:10;;;;;;;3.70;3.40;;;15.80;99.90;;;;;;5057284;28;20417;-77
2021/10/08 13:23:36;;;;;;;5.93;3.10;;;15.90;99.90;;;;;;5051917;28;20509;-77
2021/10/08 13:26:01;;;;;;;3.50;3.20;;;15.90;99.90;;;;;;5065829;28;20451;-78
2021/10/08 13:28:27;;;;;;;3.83;3.13;;;16.00;99.90;;;;;;5063705;28;20175;-77
2021/10/08 13:30:55;;;;;;;4.80;4.10;;;16.00;99.90;;;;;;5066738;28;20698;-77
2021/10/08 13:33:22;;;;;;;3.70;3.30;;;16.10;99.90;;;;;;5050007;28;20199;-77
2021/10/08 13:35:50;;;;;;;6.77;4.13;;;16.10;99.90;;;;;;5054389;28;20579;-77
2021/10/08 13:38:16;;;;;;;3.83;3.20;;;16.10;99.90;;;;;;5058091;28;20841;-77
2021/10/08 13:40:42;;;;;;;5.30;3.80;;;16.20;99.90;;;;;;5047775;28;20387;-77
2021/10/08 13:43:08;;;;;;;3.43;3.07;;;16.30;99.90;;;;;;5048662;28;20509;-77
2021/10/08 13:45:33;;;;;;;6.00;4.10;;;16.30;99.90;;;;;;5048898;28;20306;-77
2021/10/08 13:47:59;;;;;;;4.87;3.43;;;16.30;99.90;;;;;;5048666;28;20181;-77
2021/10/08 13:50:24;;;;;;;4.10;3.50;;;16.30;99.90;;;;;;5049409;28;20180;-77
2021/10/08 13:52:50;;;;;;;6.50;4.33;;;16.30;99.90;;;;;;5048277;28;20194;-77